sensor_id;sensor_type;location;lat;lon;timestamp;P1;durP1;ratioP1;P2;durP2;ratioP2
40847;SDS011;26570;50.962;5.340;2024-01-27T01:23:38;23.63;;;4.47;;
40847;SDS011;26570;50.962;5.340;2024-01-27T01:26:32;16.33;;;3.53;;
40847;SDS011;26570;50.962;5.340;2024-01-27T01:29:17;18.17;;;4.60;;
40847;SDS011;26570;50.962;5.340;2024-01-27T01:32:12;15.03;;;2.93;;
40847;SDS011;26570;50.962;5.340;2024-01-27T01:35:24;17.90;;;4.00;;
40847;SDS011;26570;50.962;5.340;2024-01-27T01:38:09;21.07;;;3.23;;
40847;SDS011;26570;50.962;5.340;2024-01-27T01:40:55;17.23;;;3.17;;
40847;SDS011;26570;50.962;5.340;2024-01-27T01:43:46;8.70;;;2.37;;
40847;SDS011;26570;50.962;5.340;2024-01-27T01:46:35;8.47;;;1.37;;
40847;SDS011;26570;50.962;5.340;2024-01-27T01:49:23;10.40;;;1.67;;
40847;SDS011;26570;50.962;5.340;2024-01-27T01:52:12;17.87;;;2.53;;
40847;SDS011;26570;50.962;5.340;2024-01-27T01:54:58;13.13;;;1.80;;
40847;SDS011;26570;50.962;5.340;2024-01-27T01:57:44;12.43;;;1.63;;
40847;SDS011;26570;50.962;5.340;2024-01-27T02:00:56;12.83;;;1.90;;
40847;SDS011;26570;50.962;5.340;2024-01-27T02:03:51;9.50;;;1.57;;
40847;SDS011;26570;50.962;5.340;2024-01-27T02:07:08;15.30;;;1.43;;
40847;SDS011;26570;50.962;5.340;2024-01-27T02:10:24;9.00;;;1.43;;
40847;SDS011;26570;50.962;5.340;2024-01-27T02:13:17;6.70;;;1.10;;
40847;SDS011;26570;50.962;5.340;2024-01-27T02:16:43;14.60;;;2.27;;
40847;SDS011;26570;50.962;5.340;2024-01-27T02:19:32;7.87;;;1.90;;
40847;SDS011;26570;50.962;5.340;2024-01-27T02:22:31;7.60;;;1.10;;
40847;SDS011;26570;50.962;5.340;2024-01-27T02:25:27;13.70;;;1.10;;
40847;SDS011;26570;50.962;5.340;2024-01-27T02:28:36;14.83;;;1.27;;
40847;SDS011;26570;50.962;5.340;2024-01-27T02:31:50;11.73;;;1.63;;
40847;SDS011;26570;50.962;5.340;2024-01-27T02:34:36;11.80;;;1.13;;
40847;SDS011;26570;50.962;5.340;2024-01-27T02:37:59;11.50;;;1.47;;
40847;SDS011;26570;50.962;5.340;2024-01-27T02:40:55;7.67;;;1.20;;
40847;SDS011;26570;50.962;5.340;2024-01-27T02:44:11;7.37;;;1.20;;
40847;SDS011;26570;50.962;5.340;2024-01-27T02:46:57;9.70;;;1.50;;
40847;SDS011;26570;50.962;5.340;2024-01-27T02:50:07;10.23;;;1.00;;
40847;SDS011;26570;50.962;5.340;2024-01-27T02:53:20;7.53;;;1.00;;
40847;SDS011;26570;50.962;5.340;2024-01-27T02:56:09;9.83;;;1.13;;
40847;SDS011;26570;50.962;5.340;2024-01-27T02:59:15;10.03;;;2.20;;
40847;SDS011;26570;50.962;5.340;2024-01-27T03:02:01;13.60;;;2.47;;
40847;SDS011;26570;50.962;5.340;2024-01-27T03:05:04;14.03;;;2.17;;
40847;SDS011;26570;50.962;5.340;2024-01-27T03:08:15;12.50;;;2.07;;
40847;SDS011;26570;50.962;5.340;2024-01-27T03:11:02;18.07;;;1.63;;
40847;SDS011;26570;50.962;5.340;2024-01-27T03:13:48;17.07;;;3.30;;
40847;SDS011;26570;50.962;5.340;2024-01-27T03:17:11;17.33;;;2.60;;
40847;SDS011;26570;50.962;5.340;2024-01-27T03:20:27;14.97;;;2.17;;
40847;SDS011;26570;50.962;5.340;2024-01-27T03:23:21;10.07;;;2.13;;
40847;SDS011;26570;50.962;5.340;2024-01-27T03:26:07;13.83;;;2.33;;
40847;SDS011;26570;50.962;5.340;2024-01-27T03:28:53;13.47;;;2.93;;
40847;SDS011;26570;50.962;5.340;2024-01-27T03:32:14;10.07;;;1.73;;
40847;SDS011;26570;50.962;5.340;2024-01-27T03:35:22;11.80;;;2.27;;
40847;SDS011;26570;50.962;5.340;2024-01-27T03:38:35;14.50;;;2.57;;
40847;SDS011;26570;50.962;5.340;2024-01-27T03:41:23;15.50;;;2.80;;
40847;SDS011;26570;50.962;5.340;2024-01-27T03:44:09;11.47;;;2.30;;
40847;SDS011;26570;50.962;5.340;2024-01-27T03:46:55;11.53;;;2.07;;
40847;SDS011;26570;50.962;5.340;2024-01-27T03:49:43;19.03;;;2.20;;
40847;SDS011;26570;50.962;5.340;2024-01-27T03:52:52;10.60;;;2.30;;
40847;SDS011;26570;50.962;5.340;2024-01-27T03:56:01;8.77;;;2.27;;
40847;SDS011;26570;50.962;5.340;2024-01-27T03:59:12;8.03;;;2.10;;
40847;SDS011;26570;50.962;5.340;2024-01-27T04:02:06;16.20;;;3.35;;
40847;SDS011;26570;50.962;5.340;2024-01-27T04:04:51;18.87;;;3.53;;
40847;SDS011;26570;50.962;5.340;2024-01-27T04:07:59;17.60;;;3.03;;
40847;SDS011;26570;50.962;5.340;2024-01-27T04:11:09;13.27;;;3.13;;
40847;SDS011;26570;50.962;5.340;2024-01-27T04:14:42;21.50;;;3.57;;
40847;SDS011;26570;50.962;5.340;2024-01-27T04:17:48;11.67;;;3.10;;
40847;SDS011;26570;50.962;5.340;2024-01-27T04:21:00;15.77;;;3.17;;
40847;SDS011;26570;50.962;5.340;2024-01-27T04:23:45;7.80;;;3.37;;
40847;SDS011;26570;50.962;5.340;2024-01-27T04:26:53;14.23;;;3.67;;
40847;SDS011;26570;50.962;5.340;2024-01-27T04:30:14;12.17;;;3.60;;
40847;SDS011;26570;50.962;5.340;2024-01-27T04:33:22;14.83;;;3.70;;
40847;SDS011;26570;50.962;5.340;2024-01-27T04:36:07;16.33;;;3.97;;
40847;SDS011;26570;50.962;5.340;2024-01-27T04:38:57;16.20;;;3.30;;
40847;SDS011;26570;50.962;5.340;2024-01-27T04:42:18;15.10;;;3.10;;
40847;SDS011;26570;50.962;5.340;2024-01-27T04:45:04;17.37;;;3.37;;
40847;SDS011;26570;50.962;5.340;2024-01-27T04:48:26;15.43;;;3.53;;
40847;SDS011;26570;50.962;5.340;2024-01-27T04:51:42;25.53;;;4.57;;
40847;SDS011;26570;50.962;5.340;2024-01-27T04:54:30;17.33;;;3.87;;
40847;SDS011;26570;50.962;5.340;2024-01-27T04:57:37;17.97;;;3.00;;
40847;SDS011;26570;50.962;5.340;2024-01-27T05:00:25;18.67;;;4.10;;
40847;SDS011;26570;50.962;5.340;2024-01-27T05:03:51;14.00;;;3.13;;
40847;SDS011;26570;50.962;5.340;2024-01-27T05:07:00;18.20;;;3.30;;
40847;SDS011;26570;50.962;5.340;2024-01-27T05:10:10;16.07;;;4.13;;
40847;SDS011;26570;50.962;5.340;2024-01-27T05:13:06;18.80;;;3.87;;
40847;SDS011;26570;50.962;5.340;2024-01-27T05:16:25;14.00;;;3.57;;
40847;SDS011;26570;50.962;5.340;2024-01-27T05:19:16;21.10;;;4.00;;
40847;SDS011;26570;50.962;5.340;2024-01-27T05:22:11;15.27;;;3.07;;
40847;SDS011;26570;50.962;5.340;2024-01-27T05:25:26;15.53;;;2.97;;
40847;SDS011;26570;50.962;5.340;2024-01-27T05:28:36;13.73;;;3.50;;
40847;SDS011;26570;50.962;5.340;2024-01-27T05:31:52;13.90;;;3.40;;
40847;SDS011;26570;50.962;5.340;2024-01-27T05:34:44;12.40;;;2.77;;
40847;SDS011;26570;50.962;5.340;2024-01-27T05:37:29;15.57;;;3.27;;
40847;SDS011;26570;50.962;5.340;2024-01-27T05:40:45;12.20;;;3.30;;
40847;SDS011;26570;50.962;5.340;2024-01-27T05:43:48;19.00;;;3.70;;
40847;SDS011;26570;50.962;5.340;2024-01-27T05:47:04;12.60;;;3.37;;
40847;SDS011;26570;50.962;5.340;2024-01-27T05:50:22;14.37;;;3.37;;
40847;SDS011;26570;50.962;5.340;2024-01-27T05:53:29;14.80;;;3.77;;
40847;SDS011;26570;50.962;5.340;2024-01-27T05:56:45;15.93;;;3.50;;
40847;SDS011;26570;50.962;5.340;2024-01-27T05:59:59;11.52;;;2.85;;
40847;SDS011;26570;50.962;5.340;2024-01-27T06:02:52;11.77;;;3.00;;
40847;SDS011;26570;50.962;5.340;2024-01-27T06:05:47;16.53;;;3.00;;
40847;SDS011;26570;50.962;5.340;2024-01-27T06:09:18;17.17;;;2.53;;
40847;SDS011;26570;50.962;5.340;2024-01-27T06:12:07;13.93;;;3.30;;
40847;SDS011;26570;50.962;5.340;2024-01-27T06:15:28;16.13;;;3.47;;
40847;SDS011;26570;50.962;5.340;2024-01-27T06:18:40;14.27;;;3.00;;
40847;SDS011;26570;50.962;5.340;2024-01-27T06:21:26;17.93;;;2.67;;
40847;SDS011;26570;50.962;5.340;2024-01-27T06:24:19;15.37;;;2.80;;
40847;SDS011;26570;50.962;5.340;2024-01-27T06:27:30;14.90;;;2.87;;
40847;SDS011;26570;50.962;5.340;2024-01-27T06:30:49;16.23;;;3.43;;
40847;SDS011;26570;50.962;5.340;2024-01-27T06:36:32;14.77;;;2.77;;
40847;SDS011;26570;50.962;5.340;2024-01-27T06:39:29;8.43;;;2.00;;
40847;SDS011;26570;50.962;5.340;2024-01-27T06:42:25;10.13;;;2.33;;
40847;SDS011;26570;50.962;5.340;2024-01-27T06:45:39;17.80;;;3.50;;
40847;SDS011;26570;50.962;5.340;2024-01-27T06:48:59;9.10;;;2.80;;
40847;SDS011;26570;50.962;5.340;2024-01-27T06:52:29;9.93;;;2.80;;
40847;SDS011;26570;50.962;5.340;2024-01-27T06:55:45;11.50;;;3.87;;
40847;SDS011;26570;50.962;5.340;2024-01-27T06:58:42;17.17;;;3.60;;
40847;SDS011;26570;50.962;5.340;2024-01-27T07:01:45;19.07;;;3.13;;
40847;SDS011;26570;50.962;5.340;2024-01-27T07:04:36;12.70;;;3.40;;
40847;SDS011;26570;50.962;5.340;2024-01-27T07:07:30;18.87;;;3.47;;
40847;SDS011;26570;50.962;5.340;2024-01-27T07:10:15;11.43;;;2.92;;
40847;SDS011;26570;50.962;5.340;2024-01-27T07:13:05;17.77;;;3.67;;
40847;SDS011;26570;50.962;5.340;2024-01-27T07:16:13;19.83;;;4.13;;
40847;SDS011;26570;50.962;5.340;2024-01-27T07:19:21;19.40;;;3.83;;
40847;SDS011;26570;50.962;5.340;2024-01-27T07:22:07;13.53;;;3.23;;
40847;SDS011;26570;50.962;5.340;2024-01-27T07:25:15;18.87;;;2.67;;
40847;SDS011;26570;50.962;5.340;2024-01-27T07:28:04;23.47;;;4.47;;
40847;SDS011;26570;50.962;5.340;2024-01-27T07:31:12;13.43;;;2.83;;
40847;SDS011;26570;50.962;5.340;2024-01-27T07:34:26;16.30;;;3.63;;
40847;SDS011;26570;50.962;5.340;2024-01-27T07:37:11;12.07;;;3.70;;
40847;SDS011;26570;50.962;5.340;2024-01-27T07:40:20;24.07;;;4.23;;
40847;SDS011;26570;50.962;5.340;2024-01-27T07:43:06;22.63;;;4.53;;
40847;SDS011;26570;50.962;5.340;2024-01-27T07:46:13;14.13;;;3.73;;
40847;SDS011;26570;50.962;5.340;2024-01-27T07:49:03;24.43;;;4.33;;
40847;SDS011;26570;50.962;5.340;2024-01-27T07:52:10;15.70;;;3.20;;
40847;SDS011;26570;50.962;5.340;2024-01-27T07:55:19;22.03;;;5.10;;
40847;SDS011;26570;50.962;5.340;2024-01-27T07:58:04;17.37;;;4.00;;
40847;SDS011;26570;50.962;5.340;2024-01-27T08:00:49;24.90;;;5.30;;
40847;SDS011;26570;50.962;5.340;2024-01-27T08:03:35;30.30;;;4.40;;
40847;SDS011;26570;50.962;5.340;2024-01-27T08:06:47;29.03;;;4.60;;
40847;SDS011;26570;50.962;5.340;2024-01-27T08:09:33;15.93;;;3.47;;
40847;SDS011;26570;50.962;5.340;2024-01-27T08:12:18;21.07;;;3.83;;
40847;SDS011;26570;50.962;5.340;2024-01-27T08:15:07;21.50;;;4.30;;
40847;SDS011;26570;50.962;5.340;2024-01-27T08:18:19;17.63;;;2.97;;
40847;SDS011;26570;50.962;5.340;2024-01-27T08:21:06;20.30;;;3.80;;
40847;SDS011;26570;50.962;5.340;2024-01-27T08:24:18;18.00;;;4.50;;
40847;SDS011;26570;50.962;5.340;2024-01-27T08:27:06;20.37;;;4.47;;
40847;SDS011;26570;50.962;5.340;2024-01-27T08:30:17;23.93;;;4.80;;
40847;SDS011;26570;50.962;5.340;2024-01-27T08:33:25;18.03;;;5.30;;
40847;SDS011;26570;50.962;5.340;2024-01-27T08:36:28;22.43;;;4.50;;
40847;SDS011;26570;50.962;5.340;2024-01-27T08:39:16;22.57;;;5.33;;
40847;SDS011;26570;50.962;5.340;2024-01-27T08:42:03;30.37;;;5.73;;
40847;SDS011;26570;50.962;5.340;2024-01-27T08:45:18;29.17;;;5.47;;
40847;SDS011;26570;50.962;5.340;2024-01-27T08:48:06;24.23;;;5.33;;
40847;SDS011;26570;50.962;5.340;2024-01-27T08:51:24;22.13;;;5.63;;
40847;SDS011;26570;50.962;5.340;2024-01-27T08:54:42;17.47;;;4.20;;
40847;SDS011;26570;50.962;5.340;2024-01-27T08:57:27;26.33;;;5.00;;
40847;SDS011;26570;50.962;5.340;2024-01-27T09:00:12;24.13;;;5.47;;
40847;SDS011;26570;50.962;5.340;2024-01-27T09:02:59;29.07;;;5.20;;
40847;SDS011;26570;50.962;5.340;2024-01-27T09:05:49;22.07;;;5.67;;
40847;SDS011;26570;50.962;5.340;2024-01-27T09:08:34;28.10;;;4.87;;
40847;SDS011;26570;50.962;5.340;2024-01-27T09:11:20;27.43;;;6.03;;
40847;SDS011;26570;50.962;5.340;2024-01-27T09:14:30;32.27;;;5.67;;
40847;SDS011;26570;50.962;5.340;2024-01-27T09:17:18;20.73;;;4.87;;
40847;SDS011;26570;50.962;5.340;2024-01-27T09:20:26;38.37;;;6.30;;
40847;SDS011;26570;50.962;5.340;2024-01-27T09:23:10;16.90;;;4.00;;
40847;SDS011;26570;50.962;5.340;2024-01-27T09:26:18;23.90;;;4.40;;
40847;SDS011;26570;50.962;5.340;2024-01-27T09:29:45;26.67;;;4.97;;
40847;SDS011;26570;50.962;5.340;2024-01-27T09:32:30;24.17;;;4.80;;
40847;SDS011;26570;50.962;5.340;2024-01-27T09:35:38;27.93;;;4.07;;
40847;SDS011;26570;50.962;5.340;2024-01-27T09:39:03;26.10;;;3.85;;
40847;SDS011;26570;50.962;5.340;2024-01-27T09:41:48;20.40;;;3.17;;
40847;SDS011;26570;50.962;5.340;2024-01-27T09:45:02;18.07;;;3.90;;
40847;SDS011;26570;50.962;5.340;2024-01-27T09:47:55;24.37;;;3.30;;
40847;SDS011;26570;50.962;5.340;2024-01-27T09:50:58;25.43;;;3.73;;
40847;SDS011;26570;50.962;5.340;2024-01-27T09:53:47;23.27;;;4.25;;
40847;SDS011;26570;50.962;5.340;2024-01-27T09:56:57;37.43;;;3.60;;
40847;SDS011;26570;50.962;5.340;2024-01-27T10:00:04;17.77;;;4.53;;
40847;SDS011;26570;50.962;5.340;2024-01-27T10:02:56;38.23;;;3.60;;
40847;SDS011;26570;50.962;5.340;2024-01-27T10:06:16;26.57;;;3.90;;
40847;SDS011;26570;50.962;5.340;2024-01-27T10:09:37;13.93;;;2.67;;
40847;SDS011;26570;50.962;5.340;2024-01-27T10:12:37;20.17;;;3.13;;
40847;SDS011;26570;50.962;5.340;2024-01-27T10:15:37;16.03;;;3.10;;
40847;SDS011;26570;50.962;5.340;2024-01-27T10:19:04;15.80;;;2.80;;
40847;SDS011;26570;50.962;5.340;2024-01-27T10:21:59;21.30;;;3.27;;
40847;SDS011;26570;50.962;5.340;2024-01-27T10:29:08;14.37;;;1.83;;
40847;SDS011;26570;50.962;5.340;2024-01-27T10:31:53;15.33;;;2.27;;
40847;SDS011;26570;50.962;5.340;2024-01-27T10:34:38;12.87;;;1.00;;
40847;SDS011;26570;50.962;5.340;2024-01-27T10:37:52;13.13;;;0.90;;
40847;SDS011;26570;50.962;5.340;2024-01-27T10:41:04;10.55;;;0.90;;
40847;SDS011;26570;50.962;5.340;2024-01-27T10:44:23;9.77;;;1.07;;
40847;SDS011;26570;50.962;5.340;2024-01-27T10:47:13;9.83;;;1.00;;
40847;SDS011;26570;50.962;5.340;2024-01-27T10:50:36;10.07;;;1.10;;
40847;SDS011;26570;50.962;5.340;2024-01-27T10:53:25;16.53;;;1.83;;
40847;SDS011;26570;50.962;5.340;2024-01-27T10:56:37;6.93;;;0.90;;
40847;SDS011;26570;50.962;5.340;2024-01-27T10:59:53;5.53;;;0.70;;
40847;SDS011;26570;50.962;5.340;2024-01-27T11:02:42;12.43;;;1.20;;
40847;SDS011;26570;50.962;5.340;2024-01-27T11:05:32;4.50;;;0.70;;
40847;SDS011;26570;50.962;5.340;2024-01-27T11:08:40;11.47;;;1.13;;
40847;SDS011;26570;50.962;5.340;2024-01-27T11:11:26;9.63;;;1.10;;
40847;SDS011;26570;50.962;5.340;2024-01-27T11:14:12;6.50;;;0.70;;
40847;SDS011;26570;50.962;5.340;2024-01-27T11:17:25;8.60;;;0.80;;
40847;SDS011;26570;50.962;5.340;2024-01-27T11:20:16;19.27;;;1.77;;
40847;SDS011;26570;50.962;5.340;2024-01-27T11:26:59;9.37;;;1.47;;
40847;SDS011;26570;50.962;5.340;2024-01-27T11:29:51;10.70;;;0.70;;
40847;SDS011;26570;50.962;5.340;2024-01-27T11:33:17;10.00;;;1.07;;
40847;SDS011;26570;50.962;5.340;2024-01-27T11:36:23;9.40;;;0.90;;
40847;SDS011;26570;50.962;5.340;2024-01-27T11:39:33;12.57;;;1.33;;
40847;SDS011;26570;50.962;5.340;2024-01-27T11:42:58;7.83;;;0.60;;
40847;SDS011;26570;50.962;5.340;2024-01-27T11:49:27;4.70;;;0.50;;
40847;SDS011;26570;50.962;5.340;2024-01-27T12:03:32;8.47;;;0.70;;
40847;SDS011;26570;50.962;5.340;2024-01-27T12:06:46;3.13;;;0.40;;
40847;SDS011;26570;50.962;5.340;2024-01-27T12:09:59;7.60;;;0.67;;
40847;SDS011;26570;50.962;5.340;2024-01-27T12:13:21;5.07;;;0.43;;
40847;SDS011;26570;50.962;5.340;2024-01-27T12:16:33;8.50;;;0.50;;
40847;SDS011;26570;50.962;5.340;2024-01-27T12:19:20;6.20;;;0.60;;
40847;SDS011;26570;50.962;5.340;2024-01-27T12:22:37;13.53;;;1.27;;
40847;SDS011;26570;50.962;5.340;2024-01-27T12:25:51;7.73;;;0.50;;
40847;SDS011;26570;50.962;5.340;2024-01-27T12:29:09;3.97;;;0.47;;
40847;SDS011;26570;50.962;5.340;2024-01-27T12:31:58;9.57;;;0.60;;
40847;SDS011;26570;50.962;5.340;2024-01-27T12:34:49;7.07;;;0.53;;
40847;SDS011;26570;50.962;5.340;2024-01-27T12:38:09;8.70;;;0.50;;
40847;SDS011;26570;50.962;5.340;2024-01-27T12:41:22;14.70;;;0.40;;
40847;SDS011;26570;50.962;5.340;2024-01-27T12:44:18;4.47;;;0.57;;
40847;SDS011;26570;50.962;5.340;2024-01-27T12:47:06;6.13;;;0.53;;
40847;SDS011;26570;50.962;5.340;2024-01-27T12:50:31;5.90;;;0.40;;
40847;SDS011;26570;50.962;5.340;2024-01-27T12:53:18;5.13;;;0.50;;
40847;SDS011;26570;50.962;5.340;2024-01-27T12:56:25;9.33;;;0.40;;
40847;SDS011;26570;50.962;5.340;2024-01-27T12:59:33;8.33;;;0.63;;
40847;SDS011;26570;50.962;5.340;2024-01-27T13:02:18;8.70;;;0.50;;
40847;SDS011;26570;50.962;5.340;2024-01-27T13:05:27;5.87;;;0.60;;
40847;SDS011;26570;50.962;5.340;2024-01-27T13:08:13;8.43;;;0.67;;
40847;SDS011;26570;50.962;5.340;2024-01-27T13:11:11;10.60;;;0.93;;
40847;SDS011;26570;50.962;5.340;2024-01-27T13:13:57;7.23;;;0.43;;
40847;SDS011;26570;50.962;5.340;2024-01-27T13:16:42;9.50;;;0.40;;
40847;SDS011;26570;50.962;5.340;2024-01-27T13:20:11;8.57;;;0.50;;
40847;SDS011;26570;50.962;5.340;2024-01-27T13:23:24;6.50;;;0.40;;
40847;SDS011;26570;50.962;5.340;2024-01-27T13:26:18;4.37;;;0.40;;
40847;SDS011;26570;50.962;5.340;2024-01-27T13:29:43;6.87;;;0.40;;
40847;SDS011;26570;50.962;5.340;2024-01-27T13:32:56;9.87;;;0.70;;
40847;SDS011;26570;50.962;5.340;2024-01-27T13:35:46;8.57;;;0.50;;
40847;SDS011;26570;50.962;5.340;2024-01-27T13:38:31;7.63;;;0.57;;
40847;SDS011;26570;50.962;5.340;2024-01-27T13:41:38;5.77;;;0.60;;
40847;SDS011;26570;50.962;5.340;2024-01-27T13:44:23;5.93;;;0.47;;
40847;SDS011;26570;50.962;5.340;2024-01-27T13:47:34;9.53;;;0.50;;
40847;SDS011;26570;50.962;5.340;2024-01-27T13:50:19;5.40;;;0.57;;
40847;SDS011;26570;50.962;5.340;2024-01-27T13:53:07;8.40;;;0.40;;
40847;SDS011;26570;50.962;5.340;2024-01-27T13:55:51;5.03;;;0.57;;
40847;SDS011;26570;50.962;5.340;2024-01-27T13:59:12;5.93;;;0.73;;
40847;SDS011;26570;50.962;5.340;2024-01-27T14:02:25;8.30;;;0.47;;
40847;SDS011;26570;50.962;5.340;2024-01-27T14:05:15;8.13;;;0.60;;
40847;SDS011;26570;50.962;5.340;2024-01-27T14:08:00;12.47;;;0.80;;
40847;SDS011;26570;50.962;5.340;2024-01-27T14:11:11;5.50;;;0.60;;
40847;SDS011;26570;50.962;5.340;2024-01-27T14:14:18;7.93;;;0.77;;
40847;SDS011;26570;50.962;5.340;2024-01-27T14:17:35;6.23;;;0.50;;
40847;SDS011;26570;50.962;5.340;2024-01-27T14:20:20;4.37;;;0.50;;
40847;SDS011;26570;50.962;5.340;2024-01-27T14:23:43;5.83;;;0.50;;
40847;SDS011;26570;50.962;5.340;2024-01-27T14:26:59;5.33;;;0.60;;
40847;SDS011;26570;50.962;5.340;2024-01-27T14:29:49;5.03;;;0.50;;
40847;SDS011;26570;50.962;5.340;2024-01-27T14:33:08;12.87;;;0.70;;
40847;SDS011;26570;50.962;5.340;2024-01-27T14:35:53;6.27;;;0.50;;
40847;SDS011;26570;50.962;5.340;2024-01-27T14:38:39;5.77;;;0.87;;
40847;SDS011;26570;50.962;5.340;2024-01-27T14:42:03;6.05;;;0.60;;
40847;SDS011;26570;50.962;5.340;2024-01-27T14:44:51;6.20;;;0.40;;
40847;SDS011;26570;50.962;5.340;2024-01-27T14:47:59;15.47;;;0.70;;
40847;SDS011;26570;50.962;5.340;2024-01-27T14:50:45;7.60;;;0.50;;
40847;SDS011;26570;50.962;5.340;2024-01-27T14:53:36;6.53;;;0.50;;
40847;SDS011;26570;50.962;5.340;2024-01-27T14:56:28;7.77;;;0.60;;
40847;SDS011;26570;50.962;5.340;2024-01-27T14:59:55;6.53;;;0.73;;
40847;SDS011;26570;50.962;5.340;2024-01-27T15:02:49;8.57;;;0.70;;
40847;SDS011;26570;50.962;5.340;2024-01-27T15:05:36;4.97;;;0.53;;
40847;SDS011;26570;50.962;5.340;2024-01-27T15:09:02;4.10;;;0.40;;
40847;SDS011;26570;50.962;5.340;2024-01-27T15:12:11;6.87;;;0.83;;
40847;SDS011;26570;50.962;5.340;2024-01-27T15:15:00;5.70;;;0.57;;
40847;SDS011;26570;50.962;5.340;2024-01-27T15:18:06;12.03;;;0.60;;
40847;SDS011;26570;50.962;5.340;2024-01-27T15:21:34;7.03;;;0.50;;
40847;SDS011;26570;50.962;5.340;2024-01-27T15:24:33;7.00;;;0.37;;
40847;SDS011;26570;50.962;5.340;2024-01-27T15:27:20;13.80;;;0.70;;
40847;SDS011;26570;50.962;5.340;2024-01-27T15:30:06;8.23;;;0.60;;
40847;SDS011;26570;50.962;5.340;2024-01-27T15:33:17;7.63;;;0.50;;
40847;SDS011;26570;50.962;5.340;2024-01-27T15:36:26;5.97;;;0.40;;
40847;SDS011;26570;50.962;5.340;2024-01-27T15:40:01;4.93;;;0.45;;
40847;SDS011;26570;50.962;5.340;2024-01-27T15:42:50;9.93;;;0.43;;
40847;SDS011;26570;50.962;5.340;2024-01-27T15:45:57;9.10;;;0.43;;
40847;SDS011;26570;50.962;5.340;2024-01-27T15:49:15;7.07;;;0.60;;
40847;SDS011;26570;50.962;5.340;2024-01-27T15:52:32;7.10;;;0.60;;
40847;SDS011;26570;50.962;5.340;2024-01-27T15:55:17;7.90;;;0.63;;
40847;SDS011;26570;50.962;5.340;2024-01-27T15:58:31;4.97;;;0.40;;
40847;SDS011;26570;50.962;5.340;2024-01-27T16:01:41;5.03;;;0.50;;
40847;SDS011;26570;50.962;5.340;2024-01-27T16:04:48;10.13;;;0.50;;
40847;SDS011;26570;50.962;5.340;2024-01-27T16:07:34;6.00;;;0.53;;
40847;SDS011;26570;50.962;5.340;2024-01-27T16:10:46;6.93;;;0.40;;
40847;SDS011;26570;50.962;5.340;2024-01-27T16:13:54;8.40;;;0.50;;
40847;SDS011;26570;50.962;5.340;2024-01-27T16:16:43;5.17;;;0.50;;
40847;SDS011;26570;50.962;5.340;2024-01-27T16:19:55;15.27;;;0.60;;
40847;SDS011;26570;50.962;5.340;2024-01-27T16:23:03;8.17;;;0.60;;
40847;SDS011;26570;50.962;5.340;2024-01-27T16:25:50;4.53;;;0.60;;
40847;SDS011;26570;50.962;5.340;2024-01-27T16:29:00;7.60;;;0.80;;
40847;SDS011;26570;50.962;5.340;2024-01-27T16:32:10;14.77;;;0.87;;
40847;SDS011;26570;50.962;5.340;2024-01-27T16:35:24;10.20;;;0.60;;
40847;SDS011;26570;50.962;5.340;2024-01-27T16:38:15;5.80;;;0.60;;
40847;SDS011;26570;50.962;5.340;2024-01-27T16:41:22;11.37;;;0.73;;
40847;SDS011;26570;50.962;5.340;2024-01-27T16:44:09;7.47;;;0.90;;
40847;SDS011;26570;50.962;5.340;2024-01-27T16:47:16;5.27;;;0.63;;
40847;SDS011;26570;50.962;5.340;2024-01-27T16:50:05;5.40;;;0.50;;
40847;SDS011;26570;50.962;5.340;2024-01-27T16:53:16;6.20;;;0.90;;
40847;SDS011;26570;50.962;5.340;2024-01-27T16:56:02;8.20;;;0.77;;
40847;SDS011;26570;50.962;5.340;2024-01-27T17:20:43;12.13;;;1.77;;
40847;SDS011;26570;50.962;5.340;2024-01-27T17:23:28;7.90;;;0.90;;
40847;SDS011;26570;50.962;5.340;2024-01-27T17:26:52;14.97;;;0.70;;
40847;SDS011;26570;50.962;5.340;2024-01-27T17:29:59;9.07;;;0.90;;
40847;SDS011;26570;50.962;5.340;2024-01-27T17:33:10;9.57;;;0.93;;
40847;SDS011;26570;50.962;5.340;2024-01-27T17:35:55;15.70;;;0.93;;
40847;SDS011;26570;50.962;5.340;2024-01-27T17:38:43;8.93;;;0.97;;
40847;SDS011;26570;50.962;5.340;2024-01-27T17:41:28;5.83;;;1.17;;
40847;SDS011;26570;50.962;5.340;2024-01-27T17:44:14;8.30;;;1.00;;
40847;SDS011;26570;50.962;5.340;2024-01-27T17:46:59;10.83;;;0.63;;
40847;SDS011;26570;50.962;5.340;2024-01-27T17:49:44;10.37;;;0.77;;
40847;SDS011;26570;50.962;5.340;2024-01-27T17:52:32;9.87;;;0.80;;
40847;SDS011;26570;50.962;5.340;2024-01-27T17:55:21;6.17;;;0.80;;
40847;SDS011;26570;50.962;5.340;2024-01-27T17:58:44;12.13;;;1.83;;
40847;SDS011;26570;50.962;5.340;2024-01-27T18:01:53;7.53;;;0.60;;
40847;SDS011;26570;50.962;5.340;2024-01-27T18:05:00;8.67;;;0.63;;
40847;SDS011;26570;50.962;5.340;2024-01-27T18:07:48;12.30;;;1.00;;
40847;SDS011;26570;50.962;5.340;2024-01-27T18:10:56;10.33;;;1.30;;
40847;SDS011;26570;50.962;5.340;2024-01-27T18:13:45;16.20;;;2.30;;
40847;SDS011;26570;50.962;5.340;2024-01-27T18:16:32;9.17;;;0.70;;
40847;SDS011;26570;50.962;5.340;2024-01-27T18:19:17;6.17;;;0.90;;
40847;SDS011;26570;50.962;5.340;2024-01-27T18:22:23;13.40;;;1.40;;
40847;SDS011;26570;50.962;5.340;2024-01-27T18:25:29;9.23;;;2.77;;
40847;SDS011;26570;50.962;5.340;2024-01-27T18:28:14;24.37;;;5.70;;
40847;SDS011;26570;50.962;5.340;2024-01-27T18:31:21;36.17;;;9.33;;
40847;SDS011;26570;50.962;5.340;2024-01-27T18:34:07;40.23;;;11.47;;
40847;SDS011;26570;50.962;5.340;2024-01-27T18:36:53;49.70;;;12.63;;
40847;SDS011;26570;50.962;5.340;2024-01-27T18:39:38;43.13;;;12.40;;
40847;SDS011;26570;50.962;5.340;2024-01-27T18:42:24;38.03;;;10.17;;
40847;SDS011;26570;50.962;5.340;2024-01-27T18:45:47;22.53;;;5.60;;
40847;SDS011;26570;50.962;5.340;2024-01-27T18:48:59;16.03;;;2.60;;
40847;SDS011;26570;50.962;5.340;2024-01-27T18:51:44;16.37;;;3.13;;
40847;SDS011;26570;50.962;5.340;2024-01-27T18:54:30;16.53;;;2.63;;
40847;SDS011;26570;50.962;5.340;2024-01-27T18:57:21;18.70;;;2.30;;
40847;SDS011;26570;50.962;5.340;2024-01-27T19:00:27;12.23;;;1.40;;
40847;SDS011;26570;50.962;5.340;2024-01-27T19:03:37;12.53;;;2.63;;
40847;SDS011;26570;50.962;5.340;2024-01-27T19:06:51;12.50;;;2.70;;
40847;SDS011;26570;50.962;5.340;2024-01-27T19:09:37;10.53;;;3.07;;
40847;SDS011;26570;50.962;5.340;2024-01-27T19:12:32;8.97;;;3.73;;
40847;SDS011;26570;50.962;5.340;2024-01-27T19:15:20;18.27;;;4.50;;
40847;SDS011;26570;50.962;5.340;2024-01-27T19:18:34;16.83;;;3.55;;
40847;SDS011;26570;50.962;5.340;2024-01-27T19:21:46;18.53;;;4.17;;
40847;SDS011;26570;50.962;5.340;2024-01-27T19:24:31;17.37;;;4.83;;
40847;SDS011;26570;50.962;5.340;2024-01-27T19:27:22;12.90;;;2.83;;
40847;SDS011;26570;50.962;5.340;2024-01-27T19:30:35;12.37;;;3.27;;
40847;SDS011;26570;50.962;5.340;2024-01-27T19:33:32;16.37;;;3.27;;
40847;SDS011;26570;50.962;5.340;2024-01-27T19:36:18;16.30;;;3.43;;
40847;SDS011;26570;50.962;5.340;2024-01-27T19:39:03;15.73;;;3.83;;
40847;SDS011;26570;50.962;5.340;2024-01-27T19:42:11;10.77;;;2.27;;
40847;SDS011;26570;50.962;5.340;2024-01-27T19:45:24;13.60;;;2.47;;
40847;SDS011;26570;50.962;5.340;2024-01-27T19:48:13;10.27;;;1.63;;
40847;SDS011;26570;50.962;5.340;2024-01-27T19:51:25;9.80;;;2.27;;
40847;SDS011;26570;50.962;5.340;2024-01-27T19:54:34;11.70;;;2.33;;
40847;SDS011;26570;50.962;5.340;2024-01-27T19:57:25;17.03;;;2.73;;
40847;SDS011;26570;50.962;5.340;2024-01-27T20:00:19;13.80;;;1.90;;
40847;SDS011;26570;50.962;5.340;2024-01-27T20:03:29;10.87;;;2.77;;
40847;SDS011;26570;50.962;5.340;2024-01-27T20:06:21;14.40;;;1.87;;
40847;SDS011;26570;50.962;5.340;2024-01-27T20:09:07;11.90;;;1.73;;